createdAt,value
2023-02-02T00:00:00.858Z,4.07
2023-02-02T00:02:47.830Z,3.37
2023-02-02T00:05:34.767Z,4.03
2023-02-02T00:08:22.602Z,3.30
2023-02-02T00:11:09.764Z,3.93
2023-02-02T00:13:56.699Z,5.87
2023-02-02T00:16:52.088Z,2.77
2023-02-02T00:19:39.040Z,3.00
2023-02-02T00:22:25.971Z,2.70
2023-02-02T00:25:12.923Z,3.43
2023-02-02T00:27:59.862Z,2.63
2023-02-02T00:30:46.853Z,3.93
2023-02-02T00:33:33.810Z,2.60
2023-02-02T00:36:22.416Z,3.43
2023-02-02T00:39:10.694Z,4.87
2023-02-02T00:41:57.651Z,2.83
2023-02-02T00:45:03.160Z,2.70
2023-02-02T00:47:50.851Z,3.17
2023-02-02T00:50:38.152Z,2.77
2023-02-02T00:53:25.080Z,3.40
2023-02-02T00:56:12.012Z,4.63
2023-02-02T00:58:58.929Z,2.80
2023-02-02T01:01:46.074Z,4.20
2023-02-02T01:04:33.179Z,5.93
2023-02-02T01:07:20.161Z,5.60
2023-02-02T01:10:10.838Z,5.60
2023-02-02T01:12:57.759Z,5.70
2023-02-02T01:15:45.103Z,1.93
2023-02-02T01:18:32.111Z,6.57
2023-02-02T01:21:19.621Z,5.37
2023-02-02T01:24:07.139Z,5.97
2023-02-02T01:26:54.053Z,2.50
2023-02-02T01:29:41.363Z,2.37
2023-02-02T01:32:28.295Z,4.53
2023-02-02T01:35:15.306Z,3.63
2023-02-02T01:38:02.286Z,3.67
2023-02-02T01:40:52.862Z,4.73
2023-02-02T01:43:45.954Z,3.80
2023-02-02T01:46:35.349Z,4.60
2023-02-02T01:49:23.248Z,2.37
2023-02-02T01:52:12.076Z,4.80
2023-02-02T01:55:04.425Z,2.90
2023-02-02T01:57:59.508Z,3.10
2023-02-02T02:00:47.173Z,5.33
2023-02-02T02:03:36.886Z,5.10
2023-02-02T02:06:25.908Z,3.80
2023-02-02T02:09:13.852Z,4.20
2023-02-02T02:12:00.837Z,3.67
2023-02-02T02:15:10.950Z,3.57
2023-02-02T02:18:28.452Z,3.80
2023-02-02T02:22:12.745Z,2.13
2023-02-02T02:25:45.971Z,3.07
2023-02-02T02:29:00.623Z,3.57
2023-02-02T02:32:05.565Z,1.93
2023-02-02T02:35:30.258Z,5.40
2023-02-02T02:38:42.176Z,3.27
2023-02-02T02:41:36.333Z,3.50
2023-02-02T02:44:24.516Z,2.40
2023-02-02T02:47:11.573Z,3.73
2023-02-02T02:49:59.023Z,3.43
2023-02-02T02:52:49.278Z,2.67
2023-02-02T02:55:47.872Z,2.60
2023-02-02T02:58:49.047Z,2.43
2023-02-02T03:01:51.883Z,4.50
2023-02-02T03:04:56.810Z,2.97
2023-02-02T03:08:08.559Z,2.40
2023-02-02T03:10:57.501Z,1.90
2023-02-02T03:13:44.745Z,3.33
2023-02-02T03:16:31.677Z,2.47
2023-02-02T03:19:18.889Z,1.83
2023-02-02T03:22:05.807Z,1.57
2023-02-02T03:24:53.464Z,2.43
2023-02-02T03:27:40.580Z,3.57
2023-02-02T03:30:27.878Z,2.60
2023-02-02T03:33:16.091Z,1.80
2023-02-02T03:36:03.153Z,2.00
2023-02-02T03:38:50.254Z,2.40
2023-02-02T03:41:37.212Z,2.60
2023-02-02T03:44:24.120Z,3.07
2023-02-02T03:47:11.026Z,4.00
2023-02-02T03:49:58.187Z,1.47
2023-02-02T03:52:45.256Z,2.40
2023-02-02T03:55:32.215Z,3.43
2023-02-02T03:58:22.097Z,2.50
2023-02-02T04:01:12.608Z,1.87
2023-02-02T04:03:59.655Z,2.00
2023-02-02T04:06:46.654Z,2.97
2023-02-02T04:09:33.584Z,1.60
2023-02-02T04:12:20.521Z,2.67
2023-02-02T04:15:08.117Z,1.50
2023-02-02T04:17:55.026Z,2.37
2023-02-02T04:20:41.953Z,3.20
2023-02-02T04:23:29.190Z,3.60
2023-02-02T04:26:16.170Z,3.13
2023-02-02T04:29:03.463Z,1.97
2023-02-02T04:31:50.400Z,1.73
2023-02-02T04:34:37.410Z,0.53
2023-02-02T04:37:24.421Z,0.50
2023-02-02T04:40:12.112Z,0.40
2023-02-02T04:42:59.127Z,0.30
2023-02-02T04:45:46.132Z,0.33
2023-02-02T04:48:33.220Z,0.30
2023-02-02T04:51:20.116Z,0.33
2023-02-02T04:54:08.024Z,0.40
2023-02-02T04:56:54.926Z,0.63
2023-02-02T04:59:42.567Z,0.43
2023-02-02T05:02:29.531Z,0.50
2023-02-02T05:05:16.555Z,0.53
2023-02-02T05:08:03.630Z,0.43
2023-02-02T05:10:50.652Z,0.20
2023-02-02T05:13:37.851Z,0.30
2023-02-02T05:16:27.035Z,0.30
2023-02-02T05:19:16.912Z,0.30
2023-02-02T05:22:03.841Z,0.20
2023-02-02T05:24:50.749Z,0.30
2023-02-02T05:27:37.689Z,0.50
2023-02-02T05:30:24.726Z,0.70
2023-02-02T05:33:11.960Z,0.63
2023-02-02T05:35:58.969Z,0.70
2023-02-02T05:38:45.991Z,1.40
2023-02-02T05:41:33.045Z,0.70
2023-02-02T05:44:20.043Z,0.90
2023-02-02T05:47:07.065Z,0.80
2023-02-02T05:49:54.076Z,0.77
2023-02-02T05:52:43.148Z,0.70
2023-02-02T05:55:30.199Z,0.80
2023-02-02T05:58:17.169Z,0.80
2023-02-02T06:01:04.344Z,0.90
2023-02-02T06:03:51.559Z,1.00
2023-02-02T06:06:39.151Z,1.20
2023-02-02T06:09:26.290Z,1.33
2023-02-02T06:12:13.409Z,2.20
2023-02-02T06:15:00.645Z,1.07
2023-02-02T06:17:47.654Z,1.53
2023-02-02T06:20:35.271Z,1.90
2023-02-02T06:23:22.269Z,1.10
2023-02-02T06:26:09.306Z,1.00
2023-02-02T06:28:56.683Z,3.07
2023-02-02T06:31:43.748Z,1.30
2023-02-02T06:34:30.756Z,0.60
2023-02-02T06:37:17.778Z,0.60
2023-02-02T06:40:07.286Z,0.40
2023-02-02T06:42:59.257Z,0.27
2023-02-02T06:45:46.281Z,0.40
2023-02-02T06:48:33.280Z,0.50
2023-02-02T06:51:20.583Z,0.30
2023-02-02T06:54:07.549Z,0.33
2023-02-02T06:56:56.055Z,0.30
2023-02-02T06:59:43.002Z,0.30
2023-02-02T07:02:30.044Z,0.23
2023-02-02T07:05:19.457Z,0.23
2023-02-02T07:08:06.388Z,0.20
2023-02-02T07:11:14.111Z,0.30
2023-02-02T07:14:00.158Z,0.40
2023-02-02T07:16:47.036Z,0.60
2023-02-02T07:19:33.929Z,0.80
2023-02-02T07:22:20.918Z,0.70
2023-02-02T07:25:08.626Z,0.70
2023-02-02T07:27:55.586Z,0.50
2023-02-02T07:30:42.663Z,0.40
2023-02-02T07:33:29.631Z,0.43
2023-02-02T07:36:18.841Z,0.50
2023-02-02T07:39:07.641Z,0.30
2023-02-02T07:41:54.545Z,0.70
2023-02-02T07:44:51.684Z,0.67
2023-02-02T07:47:38.585Z,0.37
2023-02-02T07:50:26.531Z,0.23
2023-02-02T07:53:13.529Z,0.30
2023-02-02T07:56:11.799Z,0.20
2023-02-02T07:58:58.818Z,0.17
2023-02-02T08:01:45.795Z,0.27
2023-02-02T08:04:34.266Z,0.17
2023-02-02T08:07:24.489Z,0.20
2023-02-02T08:10:12.176Z,0.20
2023-02-02T08:12:59.117Z,0.23
2023-02-02T08:15:46.530Z,0.30
2023-02-02T08:18:34.952Z,0.40
2023-02-02T08:21:22.308Z,0.50
2023-02-02T08:24:09.283Z,0.40
2023-02-02T08:26:56.259Z,0.70
2023-02-02T08:29:43.653Z,0.30
2023-02-02T08:32:31.372Z,0.40
2023-02-02T08:35:19.333Z,0.40
2023-02-02T08:38:07.505Z,0.40
2023-02-02T08:40:54.722Z,0.37
2023-02-02T08:43:41.990Z,0.30
2023-02-02T08:46:29.329Z,0.20
2023-02-02T08:49:16.445Z,0.20
2023-02-02T08:52:03.589Z,0.30
2023-02-02T08:54:50.624Z,0.30
2023-02-02T08:57:37.690Z,0.10
2023-02-02T09:00:24.784Z,0.20
2023-02-02T09:03:11.840Z,0.17
2023-02-02T09:06:05.061Z,0.10
2023-02-02T09:08:52.180Z,0.10
2023-02-02T09:11:39.838Z,0.10
2023-02-02T09:14:26.849Z,0.10
2023-02-02T09:17:13.854Z,0.10
2023-02-02T09:20:00.793Z,0.10
2023-02-02T09:22:48.232Z,0.10
2023-02-02T09:25:35.284Z,0.10
2023-02-02T09:28:22.219Z,0.10
2023-02-02T09:31:10.290Z,0.10
2023-02-02T09:34:01.137Z,1.00
2023-02-02T09:36:48.465Z,0.63
2023-02-02T09:39:35.476Z,0.80
2023-02-02T09:42:41.149Z,0.30
2023-02-02T09:45:42.591Z,0.40
2023-02-02T09:49:00.289Z,6.80
2023-02-02T09:51:56.658Z,5.43
2023-02-02T09:54:46.524Z,2.30
2023-02-02T09:57:39.874Z,1.53
2023-02-02T10:00:33.390Z,0.60
2023-02-02T10:03:37.799Z,0.50
2023-02-02T10:06:38.628Z,0.30
2023-02-02T10:09:48.217Z,0.37
2023-02-02T10:12:55.182Z,0.27
2023-02-02T10:16:01.771Z,0.27
2023-02-02T10:19:03.269Z,0.60
2023-02-02T10:22:09.673Z,6.67
2023-02-02T10:24:58.537Z,16.77
2023-02-02T10:27:56.851Z,12.80
2023-02-02T10:30:55.443Z,3.50
2023-02-02T10:33:46.712Z,3.53
2023-02-02T10:36:57.133Z,5.30
2023-02-02T10:40:02.492Z,8.13
2023-02-02T10:43:30.386Z,16.60
2023-02-02T10:46:25.740Z,15.43
2023-02-02T10:49:26.824Z,10.40
2023-02-02T10:52:17.897Z,8.10
2023-02-02T10:55:07.843Z,11.43
2023-02-02T10:58:12.726Z,9.97
2023-02-02T11:01:01.375Z,4.80
2023-02-02T11:03:49.008Z,5.53
2023-02-02T11:06:51.553Z,5.50
2023-02-02T11:09:42.496Z,3.80
2023-02-02T11:12:34.224Z,6.87
2023-02-02T11:15:30.777Z,3.53
2023-02-02T11:18:29.861Z,3.33
2023-02-02T11:21:25.322Z,2.43
2023-02-02T11:24:44.703Z,2.50
2023-02-02T11:27:43.204Z,1.80
2023-02-02T11:30:36.891Z,1.87
2023-02-02T11:33:34.043Z,1.40
2023-02-02T11:36:21.938Z,1.47
2023-02-02T11:39:19.955Z,1.40
2023-02-02T11:42:16.099Z,3.77
2023-02-02T11:45:04.573Z,1.97
2023-02-02T11:47:51.827Z,1.90
2023-02-02T11:50:38.851Z,1.87
2023-02-02T11:53:35.594Z,1.80
2023-02-02T11:56:25.476Z,1.20
2023-02-02T11:59:30.615Z,1.60
2023-02-02T12:02:20.531Z,1.30
2023-02-02T12:05:10.408Z,2.53
2023-02-02T12:07:57.363Z,1.40
2023-02-02T12:10:51.929Z,1.77
2023-02-02T12:14:00.832Z,2.23
2023-02-02T12:17:18.214Z,1.30
2023-02-02T12:20:16.309Z,1.10
2023-02-02T12:23:32.390Z,1.03
2023-02-02T12:26:25.728Z,1.30
2023-02-02T12:29:18.750Z,1.03
2023-02-02T12:32:33.984Z,1.30
2023-02-02T12:35:27.208Z,1.00
2023-02-02T12:38:41.950Z,1.57
2023-02-02T12:41:39.097Z,1.10
2023-02-02T12:44:33.754Z,2.47
2023-02-02T12:47:42.512Z,1.93
2023-02-02T12:50:57.518Z,2.47
2023-02-02T12:54:32.944Z,2.07
2023-02-02T12:57:41.784Z,2.03
2023-02-02T13:00:46.821Z,2.80
2023-02-02T13:03:46.361Z,3.13
2023-02-02T13:06:42.687Z,3.13
2023-02-02T13:09:41.214Z,2.50
2023-02-02T13:12:29.994Z,4.33
2023-02-02T13:15:23.656Z,3.83
2023-02-02T13:18:18.455Z,2.30
2023-02-02T13:21:10.593Z,2.13
2023-02-02T13:24:01.423Z,2.60
2023-02-02T13:26:49.063Z,2.20
2023-02-02T13:29:56.259Z,4.40
2023-02-02T13:32:46.394Z,3.33
2023-02-02T13:35:57.044Z,2.90
2023-02-02T13:38:45.924Z,3.33
2023-02-02T13:41:33.066Z,4.23
2023-02-02T13:44:31.922Z,2.70
2023-02-02T13:47:43.646Z,3.33
2023-02-02T13:50:38.843Z,3.00
2023-02-02T13:53:44.390Z,3.23
2023-02-02T13:57:10.542Z,13.37
2023-02-02T14:00:03.549Z,11.80
2023-02-02T14:02:57.973Z,14.27
2023-02-02T14:06:03.673Z,8.97
2023-02-02T14:08:58.791Z,7.07
2023-02-02T14:12:02.621Z,5.17
2023-02-02T14:14:49.559Z,5.07
2023-02-02T14:17:36.433Z,6.77
2023-02-02T14:20:49.628Z,3.40
2023-02-02T14:23:55.652Z,4.73
2023-02-02T14:26:49.201Z,3.30
2023-02-02T14:29:46.906Z,4.63
2023-02-02T14:32:42.129Z,2.53
2023-02-02T14:35:29.485Z,2.77
2023-02-02T14:38:40.204Z,2.90
2023-02-02T14:41:59.853Z,2.80
2023-02-02T14:45:11.889Z,2.27
2023-02-02T14:48:01.792Z,2.27
2023-02-02T14:50:54.796Z,2.27
2023-02-02T14:53:52.045Z,5.43
2023-02-02T14:56:51.517Z,3.87
2023-02-02T14:59:40.374Z,1.80
2023-02-02T15:02:36.632Z,2.50
2023-02-02T15:05:30.620Z,1.50
2023-02-02T15:08:28.140Z,2.33
2023-02-02T15:11:30.226Z,3.37
2023-02-02T15:14:20.099Z,3.00
2023-02-02T15:17:32.572Z,2.70
2023-02-02T15:20:42.957Z,2.30
2023-02-02T15:23:42.477Z,2.47
2023-02-02T15:26:42.807Z,2.00
2023-02-02T15:29:37.487Z,1.47
2023-02-02T15:32:28.327Z,1.50
2023-02-02T15:35:23.575Z,1.40
2023-02-02T15:38:17.456Z,2.00
2023-02-02T15:41:22.570Z,2.13
2023-02-02T15:44:20.557Z,1.30
2023-02-02T15:47:16.942Z,1.73
2023-02-02T15:50:19.096Z,1.30
2023-02-02T15:53:06.394Z,1.00
2023-02-02T15:55:54.676Z,0.90
2023-02-02T15:58:48.389Z,1.17
2023-02-02T16:01:47.767Z,1.10
2023-02-02T16:04:42.479Z,1.00
2023-02-02T16:07:33.881Z,1.00
2023-02-02T16:10:22.096Z,0.90
2023-02-02T16:13:21.456Z,1.97
2023-02-02T16:16:32.187Z,1.20
2023-02-02T16:19:23.614Z,1.27
2023-02-02T16:22:16.712Z,1.53
2023-02-02T16:25:09.861Z,1.20
2023-02-02T16:27:59.734Z,0.80
2023-02-02T16:30:47.976Z,0.90
2023-02-02T16:33:42.564Z,0.70
2023-02-02T16:36:29.821Z,0.57
2023-02-02T16:39:23.101Z,0.50
2023-02-02T16:42:11.364Z,0.57
2023-02-02T16:44:59.858Z,0.47
2023-02-02T16:47:46.848Z,0.30
2023-02-02T16:50:33.915Z,0.43
2023-02-02T16:53:23.944Z,0.50
2023-02-02T16:56:41.863Z,0.50
2023-02-02T16:59:33.557Z,0.50
2023-02-02T17:02:27.922Z,0.60
2023-02-02T17:05:28.876Z,0.60
2023-02-02T17:08:26.166Z,1.13
2023-02-02T17:11:23.803Z,0.80
2023-02-02T17:14:25.618Z,0.50
2023-02-02T17:17:12.519Z,0.60
2023-02-02T17:19:59.461Z,0.60
2023-02-02T17:22:49.241Z,0.57
2023-02-02T17:25:40.724Z,0.50
2023-02-02T17:28:29.535Z,0.50
2023-02-02T17:31:16.884Z,0.50
2023-02-02T17:34:11.282Z,0.50
2023-02-02T17:36:58.275Z,0.50
2023-02-02T17:39:45.317Z,0.40
2023-02-02T17:42:32.626Z,0.40
2023-02-02T17:45:28.538Z,0.50
2023-02-02T17:48:16.092Z,0.40
2023-02-02T17:51:06.538Z,0.70
2023-02-02T17:53:55.473Z,0.57
2023-02-02T17:56:43.118Z,1.93
2023-02-02T17:59:30.038Z,1.20
2023-02-02T18:02:17.111Z,2.07
2023-02-02T18:05:05.088Z,3.27
2023-02-02T18:07:52.309Z,3.50
2023-02-02T18:10:40.157Z,2.47
2023-02-02T18:13:27.999Z,1.20
2023-02-02T18:16:15.017Z,1.57
2023-02-02T18:19:03.022Z,1.27
2023-02-02T18:21:50.034Z,1.40
2023-02-02T18:24:36.981Z,1.60
2023-02-02T18:27:24.333Z,1.00
2023-02-02T18:30:12.216Z,0.70
2023-02-02T18:32:59.181Z,1.67
2023-02-02T18:35:47.459Z,4.80
2023-02-02T18:38:34.464Z,3.10
2023-02-02T18:41:21.562Z,3.53
2023-02-02T18:44:08.636Z,2.00
2023-02-02T18:46:55.530Z,1.27
2023-02-02T18:49:42.627Z,1.30
2023-02-02T18:52:33.824Z,1.27
2023-02-02T18:55:20.781Z,1.00
2023-02-02T18:58:10.587Z,1.33
2023-02-02T19:00:57.576Z,0.57
2023-02-02T19:03:49.886Z,0.80
2023-02-02T19:07:06.257Z,0.60
2023-02-02T19:09:53.209Z,0.60
2023-02-02T19:12:40.351Z,0.60
2023-02-02T19:15:27.882Z,0.50
2023-02-02T19:18:20.662Z,0.53
2023-02-02T19:21:11.664Z,0.50
2023-02-02T19:23:59.595Z,0.60
2023-02-02T19:26:49.543Z,0.47
2023-02-02T19:29:38.276Z,0.60
2023-02-02T19:32:31.090Z,0.70
2023-02-02T19:35:21.104Z,0.90
2023-02-02T19:38:13.600Z,0.90
2023-02-02T19:41:02.460Z,1.03
2023-02-02T19:43:55.256Z,1.00
2023-02-02T19:46:45.701Z,1.13
2023-02-02T19:49:35.966Z,1.10
2023-02-02T19:52:25.485Z,0.93
2023-02-02T19:55:21.151Z,1.30
2023-02-02T19:58:19.509Z,1.30
2023-02-02T20:01:19.588Z,1.00
2023-02-02T20:04:14.451Z,1.20
2023-02-02T20:07:05.275Z,1.07
2023-02-02T20:09:52.173Z,0.70
2023-02-02T20:12:39.121Z,0.90
2023-02-02T20:15:35.402Z,0.93
2023-02-02T20:18:26.552Z,0.90
2023-02-02T20:21:40.511Z,0.70
2023-02-02T20:24:34.918Z,0.60
2023-02-02T20:27:26.761Z,0.70
2023-02-02T20:30:25.632Z,0.80
2023-02-02T20:33:22.955Z,0.60
2023-02-02T20:36:32.907Z,0.70
2023-02-02T20:39:36.696Z,0.70
2023-02-02T20:42:25.204Z,0.80
2023-02-02T20:45:12.863Z,0.80
2023-02-02T20:47:59.780Z,0.90
2023-02-02T20:50:46.961Z,0.80
2023-02-02T20:53:35.260Z,0.97
2023-02-02T20:56:23.204Z,1.20
2023-02-02T20:59:10.150Z,1.83
2023-02-02T21:01:58.165Z,1.70
2023-02-02T21:04:48.867Z,1.20
2023-02-02T21:07:35.857Z,1.00
2023-02-02T21:10:24.608Z,1.00
2023-02-02T21:13:11.811Z,2.00
2023-02-02T21:15:58.725Z,5.63
2023-02-02T21:18:47.393Z,5.17
2023-02-02T21:21:34.514Z,6.83
2023-02-02T21:24:21.437Z,5.20
2023-02-02T21:27:09.218Z,4.53
2023-02-02T21:29:56.200Z,6.47
2023-02-02T21:32:44.070Z,5.20
2023-02-02T21:35:31.172Z,4.43
2023-02-02T21:38:18.174Z,5.30
2023-02-02T21:41:13.543Z,3.83
2023-02-02T21:44:00.503Z,3.50
2023-02-02T21:46:49.999Z,3.60
2023-02-02T21:49:39.678Z,4.50
2023-02-02T21:52:32.239Z,5.07
2023-02-02T21:55:34.545Z,4.90
2023-02-02T21:58:32.914Z,3.47
2023-02-02T22:01:36.193Z,3.50
2023-02-02T22:04:30.871Z,3.90
2023-02-02T22:07:17.795Z,4.50
2023-02-02T22:10:25.943Z,3.10
2023-02-02T22:13:24.825Z,4.23
2023-02-02T22:16:18.953Z,2.70
2023-02-02T22:19:23.864Z,3.57
2023-02-02T22:22:17.700Z,4.00
2023-02-02T22:25:16.773Z,3.73
2023-02-02T22:28:16.575Z,2.93
2023-02-02T22:31:04.984Z,3.70
2023-02-02T22:33:52.095Z,4.27
2023-02-02T22:36:39.090Z,4.87
2023-02-02T22:39:26.016Z,3.90
2023-02-02T22:42:12.975Z,3.13
2023-02-02T22:44:59.946Z,4.30
2023-02-02T22:47:47.715Z,5.53
2023-02-02T22:50:35.222Z,5.20
2023-02-02T22:53:22.335Z,4.37
2023-02-02T22:56:09.263Z,4.83
2023-02-02T22:58:56.163Z,4.23
2023-02-02T23:01:43.076Z,8.07
2023-02-02T23:04:30.034Z,4.57
2023-02-02T23:07:16.942Z,4.97
2023-02-02T23:10:05.148Z,4.47
2023-02-02T23:12:54.757Z,2.30
2023-02-02T23:15:41.771Z,2.33
2023-02-02T23:18:28.783Z,3.90
2023-02-02T23:21:16.062Z,2.13
2023-02-02T23:24:03.077Z,2.70
2023-02-02T23:26:50.107Z,2.50
2023-02-02T23:29:37.018Z,1.90
2023-02-02T23:32:24.392Z,1.60
2023-02-02T23:35:11.330Z,2.47
2023-02-02T23:37:58.278Z,2.03
2023-02-02T23:40:45.713Z,1.93
2023-02-02T23:43:32.686Z,1.80
2023-02-02T23:46:20.140Z,2.27
2023-02-02T23:49:07.325Z,2.03
2023-02-02T23:51:54.264Z,2.10
2023-02-02T23:54:41.803Z,2.00
2023-02-02T23:57:29.275Z,2.03
